sensor_id;sensor_type;location;lat;lon;timestamp;P1;durP1;ratioP1;P2;durP2;ratioP2
20908;SDS011;10614;53.198;6.570;2023-09-19T00:01:42;13.88;;;2.28;;
20908;SDS011;10614;53.198;6.570;2023-09-19T00:03:48;10.15;;;2.50;;
20908;SDS011;10614;53.198;6.570;2023-09-19T00:05:51;12.43;;;2.85;;
20908;SDS011;10614;53.198;6.570;2023-09-19T00:08:07;12.73;;;2.35;;
20908;SDS011;10614;53.198;6.570;2023-09-19T00:10:11;15.95;;;3.28;;
20908;SDS011;10614;53.198;6.570;2023-09-19T00:12:17;9.30;;;2.50;;
20908;SDS011;10614;53.198;6.570;2023-09-19T00:14:33;11.52;;;2.90;;
20908;SDS011;10614;53.198;6.570;2023-09-19T00:16:35;10.73;;;2.40;;
20908;SDS011;10614;53.198;6.570;2023-09-19T00:18:41;13.38;;;2.80;;
20908;SDS011;10614;53.198;6.570;2023-09-19T00:20:43;10.07;;;2.90;;
20908;SDS011;10614;53.198;6.570;2023-09-19T00:22:47;12.40;;;2.72;;
20908;SDS011;10614;53.198;6.570;2023-09-19T00:24:50;8.98;;;2.40;;
20908;SDS011;10614;53.198;6.570;2023-09-19T00:26:55;10.93;;;2.63;;
20908;SDS011;10614;53.198;6.570;2023-09-19T00:29:00;16.50;;;2.97;;
20908;SDS011;10614;53.198;6.570;2023-09-19T00:31:08;13.57;;;2.53;;
20908;SDS011;10614;53.198;6.570;2023-09-19T00:33:11;7.05;;;2.15;;
20908;SDS011;10614;53.198;6.570;2023-09-19T00:35:17;11.10;;;2.58;;
20908;SDS011;10614;53.198;6.570;2023-09-19T00:37:19;11.70;;;2.60;;
20908;SDS011;10614;53.198;6.570;2023-09-19T00:39:21;12.75;;;2.70;;
20908;SDS011;10614;53.198;6.570;2023-09-19T00:41:25;12.40;;;2.97;;
20908;SDS011;10614;53.198;6.570;2023-09-19T00:43:27;10.40;;;2.78;;
20908;SDS011;10614;53.198;6.570;2023-09-19T00:45:29;12.93;;;2.20;;
20908;SDS011;10614;53.198;6.570;2023-09-19T00:47:37;8.02;;;2.17;;
20908;SDS011;10614;53.198;6.570;2023-09-19T00:49:39;9.07;;;2.58;;
20908;SDS011;10614;53.198;6.570;2023-09-19T00:51:41;12.73;;;2.50;;
20908;SDS011;10614;53.198;6.570;2023-09-19T00:53:47;9.32;;;2.58;;
20908;SDS011;10614;53.198;6.570;2023-09-19T00:55:50;14.05;;;2.42;;
20908;SDS011;10614;53.198;6.570;2023-09-19T00:57:53;12.70;;;2.42;;
20908;SDS011;10614;53.198;6.570;2023-09-19T00:59:57;13.20;;;2.70;;
20908;SDS011;10614;53.198;6.570;2023-09-19T01:02:00;11.48;;;2.95;;
20908;SDS011;10614;53.198;6.570;2023-09-19T01:04:03;8.20;;;2.33;;
20908;SDS011;10614;53.198;6.570;2023-09-19T01:06:06;12.52;;;2.42;;
20908;SDS011;10614;53.198;6.570;2023-09-19T01:08:10;12.95;;;3.03;;
20908;SDS011;10614;53.198;6.570;2023-09-19T01:10:13;7.70;;;2.42;;
20908;SDS011;10614;53.198;6.570;2023-09-19T01:12:24;13.90;;;2.60;;
20908;SDS011;10614;53.198;6.570;2023-09-19T01:14:34;8.55;;;2.15;;
20908;SDS011;10614;53.198;6.570;2023-09-19T01:16:50;13.32;;;2.55;;
20908;SDS011;10614;53.198;6.570;2023-09-19T01:19:16;12.98;;;2.83;;
20908;SDS011;10614;53.198;6.570;2023-09-19T01:21:53;9.82;;;2.40;;
20908;SDS011;10614;53.198;6.570;2023-09-19T01:27:22;11.82;;;2.83;;
20908;SDS011;10614;53.198;6.570;2023-09-19T01:29:38;12.95;;;3.17;;
20908;SDS011;10614;53.198;6.570;2023-09-19T01:31:46;9.98;;;2.40;;
20908;SDS011;10614;53.198;6.570;2023-09-19T01:33:56;13.65;;;2.25;;
20908;SDS011;10614;53.198;6.570;2023-09-19T01:36:01;11.52;;;2.75;;
20908;SDS011;10614;53.198;6.570;2023-09-19T01:38:12;16.05;;;2.75;;
20908;SDS011;10614;53.198;6.570;2023-09-19T01:40:20;11.77;;;3.17;;
20908;SDS011;10614;53.198;6.570;2023-09-19T01:42:35;10.80;;;2.67;;
20908;SDS011;10614;53.198;6.570;2023-09-19T01:44:49;12.35;;;2.60;;
20908;SDS011;10614;53.198;6.570;2023-09-19T01:57:40;10.70;;;2.60;;
20908;SDS011;10614;53.198;6.570;2023-09-19T02:00:04;10.73;;;2.90;;
20908;SDS011;10614;53.198;6.570;2023-09-19T02:19:45;9.93;;;2.53;;
20908;SDS011;10614;53.198;6.570;2023-09-19T02:21:47;10.10;;;2.58;;
20908;SDS011;10614;53.198;6.570;2023-09-19T02:23:49;8.18;;;2.30;;
20908;SDS011;10614;53.198;6.570;2023-09-19T02:25:52;11.63;;;2.97;;
20908;SDS011;10614;53.198;6.570;2023-09-19T02:27:54;10.27;;;2.60;;
20908;SDS011;10614;53.198;6.570;2023-09-19T02:32:02;12.40;;;2.60;;
20908;SDS011;10614;53.198;6.570;2023-09-19T02:34:06;10.45;;;2.50;;
20908;SDS011;10614;53.198;6.570;2023-09-19T02:36:10;13.93;;;2.72;;
20908;SDS011;10614;53.198;6.570;2023-09-19T02:38:13;9.23;;;2.50;;
20908;SDS011;10614;53.198;6.570;2023-09-19T02:42:20;9.88;;;2.22;;
20908;SDS011;10614;53.198;6.570;2023-09-19T02:44:21;12.00;;;2.47;;
20908;SDS011;10614;53.198;6.570;2023-09-19T02:46:23;11.23;;;2.70;;
20908;SDS011;10614;53.198;6.570;2023-09-19T02:48:25;11.88;;;2.47;;
20908;SDS011;10614;53.198;6.570;2023-09-19T02:50:32;12.45;;;2.65;;
20908;SDS011;10614;53.198;6.570;2023-09-19T02:56:56;12.32;;;2.67;;
20908;SDS011;10614;53.198;6.570;2023-09-19T02:58:59;7.97;;;2.30;;
20908;SDS011;10614;53.198;6.570;2023-09-19T03:01:07;8.68;;;2.08;;
20908;SDS011;10614;53.198;6.570;2023-09-19T03:03:11;10.40;;;2.33;;
20908;SDS011;10614;53.198;6.570;2023-09-19T03:05:15;8.43;;;2.53;;
20908;SDS011;10614;53.198;6.570;2023-09-19T03:07:18;9.63;;;2.20;;
20908;SDS011;10614;53.198;6.570;2023-09-19T03:09:19;13.02;;;2.75;;
20908;SDS011;10614;53.198;6.570;2023-09-19T03:11:22;10.90;;;2.55;;
20908;SDS011;10614;53.198;6.570;2023-09-19T03:13:26;13.45;;;2.20;;
20908;SDS011;10614;53.198;6.570;2023-09-19T03:15:31;10.38;;;2.35;;
20908;SDS011;10614;53.198;6.570;2023-09-19T03:17:33;9.93;;;2.25;;
20908;SDS011;10614;53.198;6.570;2023-09-19T03:19:35;8.57;;;2.45;;
20908;SDS011;10614;53.198;6.570;2023-09-19T03:21:37;9.50;;;2.10;;
20908;SDS011;10614;53.198;6.570;2023-09-19T04:43:49;9.30;;;2.72;;
20908;SDS011;10614;53.198;6.570;2023-09-19T04:45:52;10.50;;;2.60;;
20908;SDS011;10614;53.198;6.570;2023-09-19T04:47:57;12.93;;;2.67;;
20908;SDS011;10614;53.198;6.570;2023-09-19T04:50:02;10.10;;;2.75;;
20908;SDS011;10614;53.198;6.570;2023-09-19T04:52:04;9.48;;;2.25;;
20908;SDS011;10614;53.198;6.570;2023-09-19T04:54:08;9.88;;;2.60;;
20908;SDS011;10614;53.198;6.570;2023-09-19T04:56:10;9.02;;;2.85;;
20908;SDS011;10614;53.198;6.570;2023-09-19T04:58:13;10.80;;;2.60;;
20908;SDS011;10614;53.198;6.570;2023-09-19T05:00:19;8.70;;;2.42;;
20908;SDS011;10614;53.198;6.570;2023-09-19T05:02:26;13.15;;;2.63;;
20908;SDS011;10614;53.198;6.570;2023-09-19T05:04:31;10.65;;;2.63;;
20908;SDS011;10614;53.198;6.570;2023-09-19T05:06:34;10.57;;;2.42;;
20908;SDS011;10614;53.198;6.570;2023-09-19T05:08:42;8.38;;;2.05;;
20908;SDS011;10614;53.198;6.570;2023-09-19T05:10:45;15.80;;;3.00;;
20908;SDS011;10614;53.198;6.570;2023-09-19T05:12:49;9.52;;;3.00;;
20908;SDS011;10614;53.198;6.570;2023-09-19T05:14:54;11.68;;;2.88;;
20908;SDS011;10614;53.198;6.570;2023-09-19T05:16:58;7.75;;;2.42;;
20908;SDS011;10614;53.198;6.570;2023-09-19T05:19:00;11.82;;;2.63;;
20908;SDS011;10614;53.198;6.570;2023-09-19T05:21:03;7.07;;;2.50;;
20908;SDS011;10614;53.198;6.570;2023-09-19T05:23:05;12.75;;;3.35;;
20908;SDS011;10614;53.198;6.570;2023-09-19T05:25:12;14.10;;;3.03;;
20908;SDS011;10614;53.198;6.570;2023-09-19T05:27:17;12.10;;;2.63;;
20908;SDS011;10614;53.198;6.570;2023-09-19T05:29:21;11.52;;;2.58;;
20908;SDS011;10614;53.198;6.570;2023-09-19T05:31:24;10.65;;;2.63;;
20908;SDS011;10614;53.198;6.570;2023-09-19T05:33:29;9.38;;;2.40;;
20908;SDS011;10614;53.198;6.570;2023-09-19T05:35:35;11.40;;;2.75;;
20908;SDS011;10614;53.198;6.570;2023-09-19T05:37:44;10.57;;;2.85;;
20908;SDS011;10614;53.198;6.570;2023-09-19T05:39:46;14.80;;;4.40;;
20908;SDS011;10614;53.198;6.570;2023-09-19T05:42:00;11.07;;;2.90;;
20908;SDS011;10614;53.198;6.570;2023-09-19T05:44:07;12.00;;;2.80;;
20908;SDS011;10614;53.198;6.570;2023-09-19T05:46:09;10.52;;;2.95;;
20908;SDS011;10614;53.198;6.570;2023-09-19T05:48:13;10.13;;;2.88;;
20908;SDS011;10614;53.198;6.570;2023-09-19T05:50:18;12.35;;;2.70;;
20908;SDS011;10614;53.198;6.570;2023-09-19T05:52:22;9.05;;;3.03;;
20908;SDS011;10614;53.198;6.570;2023-09-19T05:54:27;16.25;;;3.20;;
20908;SDS011;10614;53.198;6.570;2023-09-19T05:56:30;10.65;;;2.72;;
20908;SDS011;10614;53.198;6.570;2023-09-19T05:58:35;11.70;;;2.70;;
20908;SDS011;10614;53.198;6.570;2023-09-19T06:00:37;11.02;;;2.60;;
20908;SDS011;10614;53.198;6.570;2023-09-19T06:02:40;18.20;;;3.05;;
20908;SDS011;10614;53.198;6.570;2023-09-19T06:04:44;13.52;;;2.55;;
20908;SDS011;10614;53.198;6.570;2023-09-19T06:06:47;12.43;;;3.00;;
20908;SDS011;10614;53.198;6.570;2023-09-19T06:08:49;11.45;;;2.83;;
20908;SDS011;10614;53.198;6.570;2023-09-19T06:10:51;12.38;;;2.88;;
20908;SDS011;10614;53.198;6.570;2023-09-19T06:12:53;11.95;;;2.65;;
20908;SDS011;10614;53.198;6.570;2023-09-19T06:14:55;12.27;;;2.22;;
20908;SDS011;10614;53.198;6.570;2023-09-19T06:16:57;10.13;;;2.50;;
20908;SDS011;10614;53.198;6.570;2023-09-19T06:18:59;10.40;;;2.50;;
20908;SDS011;10614;53.198;6.570;2023-09-19T06:21:01;14.10;;;3.20;;
20908;SDS011;10614;53.198;6.570;2023-09-19T06:23:08;9.15;;;2.50;;
20908;SDS011;10614;53.198;6.570;2023-09-19T06:25:11;10.95;;;2.75;;
20908;SDS011;10614;53.198;6.570;2023-09-19T06:27:19;10.65;;;2.65;;
20908;SDS011;10614;53.198;6.570;2023-09-19T06:29:22;10.80;;;2.72;;
20908;SDS011;10614;53.198;6.570;2023-09-19T06:31:24;12.63;;;2.58;;
20908;SDS011;10614;53.198;6.570;2023-09-19T06:33:26;11.95;;;2.38;;
20908;SDS011;10614;53.198;6.570;2023-09-19T06:35:31;13.05;;;2.70;;
20908;SDS011;10614;53.198;6.570;2023-09-19T06:37:33;11.82;;;2.65;;
20908;SDS011;10614;53.198;6.570;2023-09-19T06:39:39;14.00;;;2.92;;
20908;SDS011;10614;53.198;6.570;2023-09-19T06:41:45;13.15;;;2.33;;
20908;SDS011;10614;53.198;6.570;2023-09-19T06:43:58;14.32;;;2.60;;
20908;SDS011;10614;53.198;6.570;2023-09-19T06:46:20;10.80;;;2.47;;
20908;SDS011;10614;53.198;6.570;2023-09-19T06:48:25;11.77;;;2.35;;
20908;SDS011;10614;53.198;6.570;2023-09-19T06:50:32;11.52;;;2.83;;
20908;SDS011;10614;53.198;6.570;2023-09-19T06:52:38;12.00;;;2.55;;
20908;SDS011;10614;53.198;6.570;2023-09-19T06:57:38;12.38;;;2.50;;
20908;SDS011;10614;53.198;6.570;2023-09-19T06:59:58;11.40;;;2.67;;
20908;SDS011;10614;53.198;6.570;2023-09-19T07:02:20;11.13;;;2.10;;
20908;SDS011;10614;53.198;6.570;2023-09-19T07:04:35;15.88;;;2.65;;
20908;SDS011;10614;53.198;6.570;2023-09-19T07:06:53;14.38;;;2.70;;
20908;SDS011;10614;53.198;6.570;2023-09-19T07:09:25;11.63;;;2.78;;
20908;SDS011;10614;53.198;6.570;2023-09-19T07:11:46;8.57;;;2.05;;
20908;SDS011;10614;53.198;6.570;2023-09-19T07:13:52;10.73;;;2.28;;
20908;SDS011;10614;53.198;6.570;2023-09-19T07:15:59;11.45;;;2.60;;
20908;SDS011;10614;53.198;6.570;2023-09-19T07:18:07;9.65;;;2.50;;
20908;SDS011;10614;53.198;6.570;2023-09-19T07:20:13;14.10;;;3.08;;
20908;SDS011;10614;53.198;6.570;2023-09-19T07:22:16;13.73;;;3.45;;
20908;SDS011;10614;53.198;6.570;2023-09-19T07:24:21;10.52;;;2.72;;
20908;SDS011;10614;53.198;6.570;2023-09-19T07:26:27;15.20;;;2.70;;
20908;SDS011;10614;53.198;6.570;2023-09-19T07:28:36;12.48;;;2.40;;
20908;SDS011;10614;53.198;6.570;2023-09-19T07:30:40;12.73;;;3.00;;
20908;SDS011;10614;53.198;6.570;2023-09-19T07:32:43;10.73;;;2.40;;
20908;SDS011;10614;53.198;6.570;2023-09-19T07:34:46;11.23;;;2.58;;
20908;SDS011;10614;53.198;6.570;2023-09-19T07:36:58;14.13;;;2.60;;
20908;SDS011;10614;53.198;6.570;2023-09-19T07:39:05;8.98;;;2.70;;
20908;SDS011;10614;53.198;6.570;2023-09-19T07:41:10;13.25;;;3.33;;
20908;SDS011;10614;53.198;6.570;2023-09-19T07:43:29;12.43;;;2.83;;
20908;SDS011;10614;53.198;6.570;2023-09-19T07:45:34;11.23;;;2.75;;
20908;SDS011;10614;53.198;6.570;2023-09-19T07:47:50;12.93;;;2.70;;
20908;SDS011;10614;53.198;6.570;2023-09-19T07:49:57;10.18;;;2.13;;
20908;SDS011;10614;53.198;6.570;2023-09-19T07:54:13;9.95;;;2.50;;
20908;SDS011;10614;53.198;6.570;2023-09-19T07:56:15;11.27;;;2.90;;
20908;SDS011;10614;53.198;6.570;2023-09-19T07:58:20;11.68;;;2.60;;
20908;SDS011;10614;53.198;6.570;2023-09-19T08:00:22;9.05;;;2.40;;
20908;SDS011;10614;53.198;6.570;2023-09-19T08:02:26;13.68;;;2.47;;
20908;SDS011;10614;53.198;6.570;2023-09-19T08:04:28;13.40;;;2.55;;
20908;SDS011;10614;53.198;6.570;2023-09-19T08:08:36;14.20;;;2.42;;
20908;SDS011;10614;53.198;6.570;2023-09-19T08:10:37;11.10;;;2.60;;
20908;SDS011;10614;53.198;6.570;2023-09-19T08:12:42;11.73;;;2.35;;
20908;SDS011;10614;53.198;6.570;2023-09-19T08:14:56;10.55;;;2.35;;
20908;SDS011;10614;53.198;6.570;2023-09-19T08:16:57;11.27;;;2.80;;
20908;SDS011;10614;53.198;6.570;2023-09-19T08:19:03;9.52;;;2.47;;
20908;SDS011;10614;53.198;6.570;2023-09-19T08:21:06;14.90;;;2.90;;
20908;SDS011;10614;53.198;6.570;2023-09-19T08:25:13;8.68;;;2.63;;
20908;SDS011;10614;53.198;6.570;2023-09-19T08:27:21;9.02;;;2.17;;
20908;SDS011;10614;53.198;6.570;2023-09-19T08:29:27;10.70;;;2.55;;
20908;SDS011;10614;53.198;6.570;2023-09-19T08:31:30;9.40;;;2.35;;
20908;SDS011;10614;53.198;6.570;2023-09-19T08:33:34;14.70;;;2.63;;
20908;SDS011;10614;53.198;6.570;2023-09-19T08:35:41;14.60;;;2.80;;
20908;SDS011;10614;53.198;6.570;2023-09-19T08:37:43;10.25;;;2.22;;
20908;SDS011;10614;53.198;6.570;2023-09-19T08:39:47;14.05;;;2.85;;
20908;SDS011;10614;53.198;6.570;2023-09-19T08:41:49;8.23;;;2.38;;
20908;SDS011;10614;53.198;6.570;2023-09-19T08:43:59;10.40;;;2.65;;
20908;SDS011;10614;53.198;6.570;2023-09-19T08:46:11;12.45;;;2.75;;
20908;SDS011;10614;53.198;6.570;2023-09-19T08:48:22;10.07;;;2.90;;
20908;SDS011;10614;53.198;6.570;2023-09-19T08:50:30;13.02;;;2.70;;
20908;SDS011;10614;53.198;6.570;2023-09-19T08:52:36;7.90;;;2.65;;
20908;SDS011;10614;53.198;6.570;2023-09-19T08:54:43;10.27;;;3.00;;
20908;SDS011;10614;53.198;6.570;2023-09-19T08:56:49;10.80;;;2.75;;
20908;SDS011;10614;53.198;6.570;2023-09-19T08:58:57;12.07;;;2.80;;
20908;SDS011;10614;53.198;6.570;2023-09-19T09:01:04;14.77;;;2.83;;
20908;SDS011;10614;53.198;6.570;2023-09-19T09:03:11;10.88;;;2.90;;
20908;SDS011;10614;53.198;6.570;2023-09-19T09:05:20;9.70;;;2.53;;
20908;SDS011;10614;53.198;6.570;2023-09-19T09:07:26;13.02;;;3.35;;
20908;SDS011;10614;53.198;6.570;2023-09-19T09:09:30;18.42;;;3.72;;
20908;SDS011;10614;53.198;6.570;2023-09-19T09:11:35;12.55;;;3.17;;
20908;SDS011;10614;53.198;6.570;2023-09-19T09:13:41;8.40;;;2.78;;
20908;SDS011;10614;53.198;6.570;2023-09-19T09:15:45;14.07;;;3.50;;
20908;SDS011;10614;53.198;6.570;2023-09-19T09:17:52;14.30;;;3.65;;
20908;SDS011;10614;53.198;6.570;2023-09-19T09:19:55;12.60;;;3.22;;
20908;SDS011;10614;53.198;6.570;2023-09-19T09:22:07;12.50;;;3.15;;
20908;SDS011;10614;53.198;6.570;2023-09-19T09:24:26;14.38;;;3.63;;
20908;SDS011;10614;53.198;6.570;2023-09-19T09:26:48;11.73;;;3.88;;
20908;SDS011;10614;53.198;6.570;2023-09-19T09:28:50;14.40;;;4.20;;
20908;SDS011;10614;53.198;6.570;2023-09-19T09:31:00;17.23;;;4.07;;
20908;SDS011;10614;53.198;6.570;2023-09-19T09:33:08;12.27;;;3.63;;
20908;SDS011;10614;53.198;6.570;2023-09-19T09:35:11;9.65;;;3.30;;
20908;SDS011;10614;53.198;6.570;2023-09-19T09:37:21;11.63;;;3.88;;
20908;SDS011;10614;53.198;6.570;2023-09-19T09:39:29;13.98;;;4.30;;
20908;SDS011;10614;53.198;6.570;2023-09-19T09:41:35;13.63;;;3.83;;
20908;SDS011;10614;53.198;6.570;2023-09-19T09:43:53;14.95;;;3.90;;
20908;SDS011;10614;53.198;6.570;2023-09-19T09:46:11;17.90;;;3.97;;
20908;SDS011;10614;53.198;6.570;2023-09-19T09:48:31;14.32;;;3.58;;
20908;SDS011;10614;53.198;6.570;2023-09-19T09:50:39;16.25;;;3.80;;
20908;SDS011;10614;53.198;6.570;2023-09-19T09:52:56;10.18;;;3.63;;
20908;SDS011;10614;53.198;6.570;2023-09-19T09:55:09;15.90;;;3.78;;
20908;SDS011;10614;53.198;6.570;2023-09-19T09:57:28;13.85;;;3.47;;
20908;SDS011;10614;53.198;6.570;2023-09-19T09:59:50;17.92;;;3.67;;
20908;SDS011;10614;53.198;6.570;2023-09-19T10:02:01;13.55;;;3.83;;
20908;SDS011;10614;53.198;6.570;2023-09-19T10:04:05;15.10;;;3.50;;
20908;SDS011;10614;53.198;6.570;2023-09-19T10:19:20;12.43;;;2.58;;
20908;SDS011;10614;53.198;6.570;2023-09-19T10:21:26;18.65;;;3.35;;
20908;SDS011;10614;53.198;6.570;2023-09-19T10:23:30;18.35;;;3.78;;
20908;SDS011;10614;53.198;6.570;2023-09-19T10:58:53;15.70;;;3.38;;
20908;SDS011;10614;53.198;6.570;2023-09-19T11:01:08;13.10;;;3.13;;
20908;SDS011;10614;53.198;6.570;2023-09-19T11:03:22;17.33;;;2.78;;
20908;SDS011;10614;53.198;6.570;2023-09-19T11:05:34;36.30;;;4.88;;
20908;SDS011;10614;53.198;6.570;2023-09-19T11:07:59;13.50;;;3.38;;
20908;SDS011;10614;53.198;6.570;2023-09-19T11:10:05;15.98;;;3.85;;
20908;SDS011;10614;53.198;6.570;2023-09-19T11:12:12;19.88;;;3.47;;
20908;SDS011;10614;53.198;6.570;2023-09-19T11:14:52;17.52;;;3.83;;
20908;SDS011;10614;53.198;6.570;2023-09-19T11:22:24;17.88;;;3.05;;
20908;SDS011;10614;53.198;6.570;2023-09-19T11:24:30;15.75;;;3.33;;
20908;SDS011;10614;53.198;6.570;2023-09-19T11:26:39;14.38;;;3.20;;
20908;SDS011;10614;53.198;6.570;2023-09-19T11:28:47;10.82;;;3.17;;
20908;SDS011;10614;53.198;6.570;2023-09-19T11:36:36;12.10;;;3.00;;
20908;SDS011;10614;53.198;6.570;2023-09-19T11:38:57;13.00;;;2.70;;
20908;SDS011;10614;53.198;6.570;2023-09-19T11:43:41;10.60;;;2.60;;
20908;SDS011;10614;53.198;6.570;2023-09-19T11:48:06;14.52;;;3.08;;
20908;SDS011;10614;53.198;6.570;2023-09-19T11:50:09;12.80;;;2.60;;
20908;SDS011;10614;53.198;6.570;2023-09-19T11:52:18;14.43;;;2.70;;
20908;SDS011;10614;53.198;6.570;2023-09-19T11:54:24;11.63;;;2.47;;
20908;SDS011;10614;53.198;6.570;2023-09-19T11:56:31;71.50;;;6.03;;
20908;SDS011;10614;53.198;6.570;2023-09-19T11:58:41;12.07;;;3.30;;
20908;SDS011;10614;53.198;6.570;2023-09-19T12:00:43;12.02;;;3.33;;
20908;SDS011;10614;53.198;6.570;2023-09-19T12:02:47;14.38;;;3.22;;
20908;SDS011;10614;53.198;6.570;2023-09-19T12:04:55;17.17;;;3.20;;
20908;SDS011;10614;53.198;6.570;2023-09-19T12:06:57;13.68;;;2.72;;
20908;SDS011;10614;53.198;6.570;2023-09-19T12:09:01;15.15;;;3.05;;
20908;SDS011;10614;53.198;6.570;2023-09-19T12:11:14;10.98;;;2.47;;
20908;SDS011;10614;53.198;6.570;2023-09-19T12:13:16;18.63;;;3.20;;
20908;SDS011;10614;53.198;6.570;2023-09-19T12:15:22;13.80;;;3.10;;
20908;SDS011;10614;53.198;6.570;2023-09-19T12:17:34;8.38;;;2.25;;
20908;SDS011;10614;53.198;6.570;2023-09-19T12:19:39;13.77;;;3.10;;
20908;SDS011;10614;53.198;6.570;2023-09-19T12:21:54;13.65;;;3.03;;
20908;SDS011;10614;53.198;6.570;2023-09-19T12:24:06;13.30;;;2.80;;
20908;SDS011;10614;53.198;6.570;2023-09-19T12:26:13;14.35;;;2.90;;
20908;SDS011;10614;53.198;6.570;2023-09-19T12:28:15;14.85;;;3.10;;
20908;SDS011;10614;53.198;6.570;2023-09-19T12:30:18;15.18;;;2.90;;
20908;SDS011;10614;53.198;6.570;2023-09-19T12:32:33;13.07;;;3.38;;
20908;SDS011;10614;53.198;6.570;2023-09-19T12:34:36;14.20;;;2.67;;
20908;SDS011;10614;53.198;6.570;2023-09-19T12:36:43;10.75;;;2.50;;
20908;SDS011;10614;53.198;6.570;2023-09-19T12:38:47;13.13;;;2.60;;
20908;SDS011;10614;53.198;6.570;2023-09-19T12:40:51;14.00;;;2.73;;
20908;SDS011;10614;53.198;6.570;2023-09-19T12:42:54;12.45;;;2.45;;
20908;SDS011;10614;53.198;6.570;2023-09-19T12:44:58;11.32;;;2.55;;
20908;SDS011;10614;53.198;6.570;2023-09-19T12:47:10;10.55;;;2.67;;
20908;SDS011;10614;53.198;6.570;2023-09-19T12:49:15;12.27;;;2.58;;
20908;SDS011;10614;53.198;6.570;2023-09-19T12:51:18;20.45;;;2.72;;
20908;SDS011;10614;53.198;6.570;2023-09-19T12:53:24;9.10;;;2.25;;
20908;SDS011;10614;53.198;6.570;2023-09-19T12:55:29;11.70;;;2.45;;
20908;SDS011;10614;53.198;6.570;2023-09-19T12:57:34;12.15;;;2.42;;
20908;SDS011;10614;53.198;6.570;2023-09-19T12:59:36;15.25;;;2.85;;
20908;SDS011;10614;53.198;6.570;2023-09-19T13:01:39;15.45;;;2.92;;
20908;SDS011;10614;53.198;6.570;2023-09-19T13:04:09;11.25;;;2.60;;
20908;SDS011;10614;53.198;6.570;2023-09-19T13:06:34;10.82;;;2.40;;
20908;SDS011;10614;53.198;6.570;2023-09-19T13:08:40;8.20;;;2.22;;
20908;SDS011;10614;53.198;6.570;2023-09-19T13:11:03;41.92;;;4.35;;
20908;SDS011;10614;53.198;6.570;2023-09-19T13:13:24;11.75;;;2.55;;
20908;SDS011;10614;53.198;6.570;2023-09-19T13:15:28;12.23;;;2.45;;
20908;SDS011;10614;53.198;6.570;2023-09-19T13:17:42;15.25;;;2.55;;
20908;SDS011;10614;53.198;6.570;2023-09-19T13:19:46;9.75;;;2.35;;
20908;SDS011;10614;53.198;6.570;2023-09-19T13:21:54;10.45;;;2.60;;
20908;SDS011;10614;53.198;6.570;2023-09-19T13:26:20;21.77;;;3.28;;
20908;SDS011;10614;53.198;6.570;2023-09-19T13:28:24;10.63;;;2.25;;
20908;SDS011;10614;53.198;6.570;2023-09-19T13:30:28;10.30;;;2.67;;
20908;SDS011;10614;53.198;6.570;2023-09-19T13:32:31;9.95;;;2.35;;
20908;SDS011;10614;53.198;6.570;2023-09-19T13:34:34;11.40;;;2.35;;
20908;SDS011;10614;53.198;6.570;2023-09-19T13:36:36;12.35;;;2.80;;
20908;SDS011;10614;53.198;6.570;2023-09-19T13:38:38;9.77;;;2.55;;
20908;SDS011;10614;53.198;6.570;2023-09-19T13:40:43;12.77;;;2.35;;
20908;SDS011;10614;53.198;6.570;2023-09-19T13:42:45;13.32;;;2.90;;
20908;SDS011;10614;53.198;6.570;2023-09-19T13:44:49;7.97;;;2.22;;
20908;SDS011;10614;53.198;6.570;2023-09-19T13:46:53;7.85;;;1.73;;
20908;SDS011;10614;53.198;6.570;2023-09-19T13:48:57;7.78;;;2.13;;
20908;SDS011;10614;53.198;6.570;2023-09-19T13:50:59;12.57;;;2.38;;
20908;SDS011;10614;53.198;6.570;2023-09-19T13:53:01;10.52;;;2.28;;
20908;SDS011;10614;53.198;6.570;2023-09-19T13:55:03;8.93;;;2.00;;
20908;SDS011;10614;53.198;6.570;2023-09-19T13:57:07;8.55;;;2.05;;
20908;SDS011;10614;53.198;6.570;2023-09-19T13:59:10;10.05;;;2.40;;
20908;SDS011;10614;53.198;6.570;2023-09-19T14:01:14;11.65;;;2.03;;
20908;SDS011;10614;53.198;6.570;2023-09-19T14:03:19;7.13;;;1.98;;
20908;SDS011;10614;53.198;6.570;2023-09-19T14:05:21;6.70;;;1.88;;
20908;SDS011;10614;53.198;6.570;2023-09-19T14:07:22;7.68;;;2.20;;
20908;SDS011;10614;53.198;6.570;2023-09-19T14:09:24;7.97;;;1.85;;
20908;SDS011;10614;53.198;6.570;2023-09-19T14:11:26;6.53;;;1.88;;
20908;SDS011;10614;53.198;6.570;2023-09-19T14:13:28;11.63;;;2.13;;
20908;SDS011;10614;53.198;6.570;2023-09-19T14:15:30;7.60;;;1.73;;
20908;SDS011;10614;53.198;6.570;2023-09-19T14:17:37;11.27;;;2.10;;
20908;SDS011;10614;53.198;6.570;2023-09-19T14:19:40;9.23;;;2.35;;
20908;SDS011;10614;53.198;6.570;2023-09-19T14:21:43;7.28;;;1.60;;
20908;SDS011;10614;53.198;6.570;2023-09-19T14:23:56;13.55;;;2.13;;
20908;SDS011;10614;53.198;6.570;2023-09-19T14:26:00;10.75;;;2.00;;
20908;SDS011;10614;53.198;6.570;2023-09-19T14:28:03;10.43;;;1.97;;
20908;SDS011;10614;53.198;6.570;2023-09-19T14:30:10;8.75;;;1.83;;
20908;SDS011;10614;53.198;6.570;2023-09-19T14:32:13;5.85;;;1.80;;
20908;SDS011;10614;53.198;6.570;2023-09-19T14:34:18;7.80;;;1.92;;
20908;SDS011;10614;53.198;6.570;2023-09-19T14:36:20;5.78;;;1.70;;
20908;SDS011;10614;53.198;6.570;2023-09-19T14:38:22;9.07;;;1.77;;
20908;SDS011;10614;53.198;6.570;2023-09-19T14:40:25;8.52;;;2.10;;
20908;SDS011;10614;53.198;6.570;2023-09-19T14:42:27;8.55;;;1.88;;
20908;SDS011;10614;53.198;6.570;2023-09-19T19:09:09;12.93;;;4.40;;
20908;SDS011;10614;53.198;6.570;2023-09-19T19:17:43;14.10;;;4.32;;
20908;SDS011;10614;53.198;6.570;2023-09-19T19:22:05;12.30;;;4.63;;
20908;SDS011;10614;53.198;6.570;2023-09-19T19:24:16;11.13;;;4.35;;
20908;SDS011;10614;53.198;6.570;2023-09-19T19:26:42;11.75;;;4.20;;
20908;SDS011;10614;53.198;6.570;2023-09-19T19:28:59;9.57;;;4.38;;
20908;SDS011;10614;53.198;6.570;2023-09-19T19:31:28;13.30;;;4.65;;
20908;SDS011;10614;53.198;6.570;2023-09-19T19:33:34;11.57;;;4.65;;
20908;SDS011;10614;53.198;6.570;2023-09-19T19:44:30;10.60;;;4.63;;
20908;SDS011;10614;53.198;6.570;2023-09-19T19:46:32;9.65;;;4.53;;
20908;SDS011;10614;53.198;6.570;2023-09-19T19:48:36;9.93;;;4.88;;
20908;SDS011;10614;53.198;6.570;2023-09-19T19:50:39;10.52;;;4.15;;
20908;SDS011;10614;53.198;6.570;2023-09-19T19:52:42;10.70;;;5.05;;
20908;SDS011;10614;53.198;6.570;2023-09-19T19:54:48;10.13;;;4.78;;
20908;SDS011;10614;53.198;6.570;2023-09-19T19:56:50;9.93;;;4.65;;
20908;SDS011;10614;53.198;6.570;2023-09-19T19:58:53;13.70;;;4.65;;
20908;SDS011;10614;53.198;6.570;2023-09-19T20:01:04;11.50;;;5.13;;
20908;SDS011;10614;53.198;6.570;2023-09-19T20:03:10;10.23;;;4.90;;
20908;SDS011;10614;53.198;6.570;2023-09-19T20:05:13;8.25;;;4.55;;
20908;SDS011;10614;53.198;6.570;2023-09-19T20:07:16;10.88;;;4.93;;
20908;SDS011;10614;53.198;6.570;2023-09-19T20:09:20;10.40;;;4.35;;
20908;SDS011;10614;53.198;6.570;2023-09-19T20:11:22;8.35;;;4.43;;
20908;SDS011;10614;53.198;6.570;2023-09-19T20:13:29;12.68;;;4.72;;
20908;SDS011;10614;53.198;6.570;2023-09-19T20:15:31;10.65;;;4.38;;
20908;SDS011;10614;53.198;6.570;2023-09-19T20:17:35;8.55;;;4.35;;
20908;SDS011;10614;53.198;6.570;2023-09-19T20:19:38;10.98;;;4.70;;
20908;SDS011;10614;53.198;6.570;2023-09-19T20:21:41;8.15;;;4.70;;
20908;SDS011;10614;53.198;6.570;2023-09-19T20:23:44;10.13;;;4.70;;
20908;SDS011;10614;53.198;6.570;2023-09-19T20:25:47;10.50;;;5.05;;
20908;SDS011;10614;53.198;6.570;2023-09-19T20:27:51;9.45;;;4.50;;
20908;SDS011;10614;53.198;6.570;2023-09-19T20:29:54;13.63;;;4.68;;
20908;SDS011;10614;53.198;6.570;2023-09-19T20:40:45;8.90;;;5.00;;